Time;durP1;ratioP1;P1;durP2;ratioP2;P2;SDS_P1;SDS_P2;PMS_P1;PMS_P2;Temp;Humidity;BMP_temperature;BMP_pressure;BME280_temperature;BME280_humidity;BME280_pressure;Samples;Min_cycle;Max_cycle;Signal;HPM_P1;HPM_P2
2020/12/18 00:01:39;;;;;;;12.10;10.90;;;;;;;8.48;80.26;97114.09;5073618;28;20174;-62
2020/12/18 00:04:05;;;;;;;12.23;10.60;;;;;;;8.45;80.33;97111.88;5073180;28;20280;-64
2020/12/18 00:06:35;;;;;;;12.63;10.90;;;;;;;8.52;79.86;97117.94;5073427;28;20695;-64
2020/12/18 00:09:02;;;;;;;11.67;10.13;;;;;;;8.53;79.42;97121.38;5073147;28;20179;-61
2020/12/18 00:11:28;;;;;;;11.60;10.40;;;;;;;8.48;79.54;97115.94;5073294;28;20419;-65
2020/12/18 00:13:54;;;;;;;13.30;10.80;;;;;;;8.42;79.69;97121.94;5073285;28;20434;-62
2020/12/18 00:16:20;;;;;;;12.10;10.83;;;;;;;8.48;79.07;97119.34;5072826;28;20413;-64
2020/12/18 00:18:47;;;;;;;11.23;10.10;;;;;;;8.39;79.12;97117.88;5073031;28;20418;-61
2020/12/18 00:21:23;;;;;;;11.57;9.70;;;;;;;8.30;79.71;97121.66;5073424;28;20408;-64
2020/12/18 00:23:49;;;;;;;11.30;10.20;;;;;;;8.27;80.19;97117.63;5051858;28;20472;-62
2020/12/18 00:26:15;;;;;;;10.30;9.27;;;;;;;8.29;79.87;97120.84;5053057;28;20531;-64
2020/12/18 00:28:41;;;;;;;12.20;10.47;;;;;;;8.31;79.17;97118.84;5052684;28;20423;-64
2020/12/18 00:31:06;;;;;;;14.50;9.90;;;;;;;8.24;79.26;97123.22;5052881;28;20938;-62
2020/12/18 00:33:32;;;;;;;11.27;10.10;;;;;;;8.26;78.77;97120.44;5053374;28;20182;-64
2020/12/18 00:35:57;;;;;;;11.87;10.67;;;;;;;8.21;79.09;97123.59;5069028;28;20181;-61
2020/12/18 00:38:23;;;;;;;12.07;10.20;;;;;;;8.17;79.86;97122.34;5074059;28;20168;-62
2020/12/18 00:40:48;;;;;;;11.13;9.97;;;;;;;8.21;79.44;97122.78;5077087;28;20284;-62
2020/12/18 00:43:13;;;;;;;10.83;9.80;;;;;;;8.21;78.91;97123.59;5097221;28;20176;-63
2020/12/18 00:45:39;;;;;;;11.20;9.53;;;;;;;8.18;79.10;97125.78;5097253;28;20193;-62
2020/12/18 00:48:04;;;;;;;11.43;10.30;;;;;;;8.15;79.71;97126.97;5087947;28;20203;-64
2020/12/18 00:50:30;;;;;;;11.33;10.23;;;;;;;8.16;79.50;97122.53;5090259;28;20194;-62
2020/12/18 00:52:56;;;;;;;12.20;10.90;;;;;;;8.10;79.39;97131.97;5097481;28;20193;-62
2020/12/18 00:55:21;;;;;;;10.17;9.27;;;;;;;8.08;79.30;97128.72;5097270;28;20184;-64
2020/12/18 00:57:47;;;;;;;11.20;10.10;;;;;;;8.07;79.12;97132.34;5096766;28;20894;-64
2020/12/18 01:00:14;;;;;;;10.10;9.10;;;;;;;7.98;79.29;97133.50;5096954;28;20222;-64
2020/12/18 01:02:39;;;;;;;11.23;9.90;;;;;;;7.89;79.99;97133.81;5095359;28;20577;-62
2020/12/18 01:05:04;;;;;;;11.33;10.20;;;;;;;7.97;79.56;97131.06;5096963;28;20954;-65
2020/12/18 01:07:30;;;;;;;11.87;10.10;;;;;;;8.04;78.91;97132.72;5096859;28;20176;-62
2020/12/18 01:09:55;;;;;;;12.20;10.70;;;;;;;8.04;78.56;97139.78;5096887;28;20278;-66
2020/12/18 01:12:21;;;;;;;11.37;10.13;;;;;;;8.00;78.41;97144.59;5097110;28;20207;-65
2020/12/18 01:14:46;;;;;;;11.33;10.10;;;;;;;7.93;78.57;97142.91;5096723;28;20219;-64
2020/12/18 01:17:13;;;;;;;10.50;9.40;;;;;;;7.85;78.64;97151.69;5091476;28;20224;-61
2020/12/18 01:19:39;;;;;;;11.10;10.00;;;;;;;7.85;78.83;97141.22;5076386;28;20383;-66
2020/12/18 01:22:04;;;;;;;12.50;11.10;;;;;;;7.86;79.15;97149.91;5076497;28;20934;-65
2020/12/18 01:24:30;;;;;;;11.10;9.93;;;;;;;7.87;79.25;97151.50;5076539;28;20209;-61
2020/12/18 01:26:55;;;;;;;12.27;10.97;;;;;;;7.85;79.23;97153.50;5075810;28;20177;-64
2020/12/18 01:29:20;;;;;;;11.70;10.50;;;;;;;7.85;79.44;97146.47;5076146;28;20188;-64
2020/12/18 01:31:46;;;;;;;11.87;10.70;;;;;;;7.86;79.80;97153.31;5077223;28;20181;-61
2020/12/18 01:34:11;;;;;;;11.77;10.57;;;;;;;7.86;79.50;97147.28;5076185;28;20514;-64
2020/12/18 01:36:37;;;;;;;12.23;11.00;;;;;;;7.89;79.70;97149.50;5076561;28;20182;-61
2020/12/18 01:39:04;;;;;;;11.77;10.57;;;;;;;7.85;80.97;97153.50;5096342;28;20272;-64
2020/12/18 01:41:29;;;;;;;13.57;10.67;;;;;;;7.86;81.04;97150.69;5096258;28;20578;-62
2020/12/18 01:43:55;;;;;;;11.30;10.10;;;;;;;7.91;81.20;97152.75;5096305;28;20450;-61
2020/12/18 01:46:25;;;;;;;12.80;10.17;;;;;;;8.00;81.17;97154.22;5094049;28;20186;-64
2020/12/18 01:48:51;;;;;;;12.40;10.33;;;;;;;8.02;81.22;97157.47;5081019;28;20578;-61
2020/12/18 01:51:16;;;;;;;10.27;9.27;;;;;;;8.00;81.68;97152.44;5074830;28;20497;-62
2020/12/18 01:53:43;;;;;;;10.67;9.67;;;;;;;8.05;82.05;97151.84;5075829;28;20172;-64
2020/12/18 01:56:11;;;;;;;9.90;8.80;;;;;;;8.12;81.51;97145.66;5075734;28;20210;-64
2020/12/18 01:58:41;;;;;;;10.13;8.87;;;;;;;8.14;81.40;97148.91;5076338;28;20416;-61
2020/12/18 02:01:08;;;;;;;11.53;10.43;;;;;;;8.14;80.94;97148.09;5075733;28;20517;-62
2020/12/18 02:03:35;;;;;;;10.53;9.43;;;;;;;8.08;81.67;97144.44;5075757;28;20433;-64
2020/12/18 02:06:09;;;;;;;10.87;9.20;;;;;;;8.09;81.88;97126.94;5074337;28;20498;-64
2020/12/18 02:08:40;;;;;;;10.97;9.93;;;;;;;8.11;81.14;97141.44;5095482;28;20808;-64
2020/12/18 02:11:06;;;;;;;11.73;10.10;;;;;;;8.11;81.18;97132.78;5095711;28;20502;-64
2020/12/18 02:13:31;;;;;;;9.93;8.93;;;;;;;8.07;81.45;97142.81;5084165;28;20929;-64
2020/12/18 02:15:57;;;;;;;9.60;8.60;;;;;;;8.11;81.32;97133.59;5075133;28;20419;-61
2020/12/18 02:18:24;;;;;;;9.37;8.53;;;;;;;8.12;81.54;97140.44;5076064;28;20183;-64
2020/12/18 02:20:53;;;;;;;10.03;9.07;;;;;;;8.19;81.73;97141.28;5075309;28;20207;-61
2020/12/18 02:23:18;;;;;;;10.73;9.50;;;;;;;8.31;81.06;97131.91;5075433;28;20873;-64
2020/12/18 02:25:44;;;;;;;10.00;9.10;;;;;;;8.30;80.93;97130.31;5074953;28;20455;-64
2020/12/18 02:28:11;;;;;;;10.10;9.00;;;;;;;8.25;81.13;97135.31;5074741;28;20183;-61
2020/12/18 02:30:40;;;;;;;12.97;10.50;;;;;;;8.36;81.06;97125.31;5075503;28;20189;-61
2020/12/18 02:33:07;;;;;;;11.00;10.00;;;;;;;8.41;81.48;97133.41;5075320;28;20416;-62
2020/12/18 02:35:34;;;;;;;11.77;10.60;;;;;;;8.30;82.49;97130.31;5074843;28;20413;-64
2020/12/18 02:38:00;;;;;;;11.10;9.80;;;;;;;8.43;82.35;97128.75;5074635;28;20904;-61
2020/12/18 02:40:26;;;;;;;10.80;9.80;;;;;;;8.50;82.00;97134.88;5075328;28;20423;-65
2020/12/18 02:42:52;;;;;;;11.50;10.27;;;;;;;8.47;81.62;97127.38;5075484;28;20427;-61
2020/12/18 02:45:17;;;;;;;10.83;9.73;;;;;;;8.49;82.12;97128.81;5075345;28;20521;-61
2020/12/18 02:47:42;;;;;;;12.90;10.73;;;;;;;8.51;81.04;97128.63;5073152;28;20653;-64
2020/12/18 02:50:08;;;;;;;12.00;10.80;;;;;;;8.42;81.61;97117.50;5074664;28;20191;-64
2020/12/18 02:52:33;;;;;;;11.73;10.50;;;;;;;8.46;81.99;97117.94;5074907;28;20176;-64
2020/12/18 02:54:59;;;;;;;10.70;9.60;;;;;;;8.48;81.32;97115.94;5074690;28;20651;-64
2020/12/18 02:57:24;;;;;;;10.20;9.30;;;;;;;8.49;80.94;97115.72;5074249;28;20178;-62
2020/12/18 02:59:50;;;;;;;13.47;11.23;;;;;;;8.53;81.10;97119.59;5074801;28;20197;-64
2020/12/18 03:02:15;;;;;;;11.20;10.00;;;;;;;8.57;81.06;97123.41;5074178;28;20186;-61
2020/12/18 03:04:40;;;;;;;11.43;10.23;;;;;;;8.56;81.03;97116.56;5074539;28;20188;-62
2020/12/18 03:07:06;;;;;;;10.73;9.53;;;;;;;8.60;80.92;97124.84;5074118;28;20235;-64
2020/12/18 03:09:31;;;;;;;12.80;10.33;;;;;;;8.64;81.05;97121.63;5074265;28;20186;-61
2020/12/18 03:11:56;;;;;;;11.07;9.97;;;;;;;8.66;81.31;97111.75;5075215;28;20185;-61
2020/12/18 03:14:22;;;;;;;11.63;10.47;;;;;;;8.69;81.56;97111.41;5074267;28;20221;-62
2020/12/18 03:16:47;;;;;;;10.77;9.67;;;;;;;8.68;81.81;97116.84;5073831;28;20185;-61
2020/12/18 03:19:13;;;;;;;10.77;9.77;;;;;;;8.70;81.72;97126.09;5075545;28;20180;-64
2020/12/18 03:21:38;;;;;;;11.10;9.60;;;;;;;8.76;81.62;97120.09;5094306;28;20168;-64
2020/12/18 03:24:04;;;;;;;10.83;9.90;;;;;;;8.76;81.24;97116.66;5094066;28;20196;-61
2020/12/18 03:26:29;;;;;;;11.30;10.20;;;;;;;8.78;81.77;97112.84;5092226;28;20259;-61
2020/12/18 03:28:55;;;;;;;11.17;9.87;;;;;;;8.82;81.87;97111.44;5094046;28;20194;-62
2020/12/18 03:31:20;;;;;;;12.50;10.90;;;;;;;8.87;82.31;97119.53;5094196;28;20172;-64
2020/12/18 03:33:45;;;;;;;11.60;10.40;;;;;;;8.95;81.89;97124.59;5094362;28;20161;-64
2020/12/18 03:36:11;;;;;;;10.97;9.97;;;;;;;8.97;82.25;97121.75;5094075;28;20646;-64
2020/12/18 03:38:36;;;;;;;11.53;10.43;;;;;;;8.98;81.93;97126.03;5093746;28;20170;-64
2020/12/18 03:41:11;;;;;;;12.30;11.00;;;;;;;9.01;81.61;97126.44;5090709;28;20200;-64
2020/12/18 03:43:36;;;;;;;9.90;9.00;;;;;;;9.02;81.79;97122.78;5091207;28;20179;-65
2020/12/18 03:46:01;;;;;;;12.90;11.37;;;;;;;9.02;81.85;97124.63;5093939;28;20421;-61
2020/12/18 03:48:27;;;;;;;11.57;10.47;;;;;;;9.13;82.00;97127.47;5081321;28;20172;-62
2020/12/18 03:50:52;;;;;;;11.17;9.77;;;;;;;9.18;81.55;97129.50;5073392;28;20226;-61
2020/12/18 03:53:18;;;;;;;11.37;10.27;;;;;;;9.14;81.50;97118.63;5073605;28;20632;-64
2020/12/18 03:55:44;;;;;;;12.10;10.90;;;;;;;9.08;81.66;97124.63;5073539;28;20190;-62
2020/12/18 03:58:10;;;;;;;11.17;10.17;;;;;;;9.15;81.58;97122.03;5074148;28;20173;-64
2020/12/18 04:00:36;;;;;;;12.37;11.13;;;;;;;9.23;81.84;97125.28;5073592;28;20194;-61
2020/12/18 04:03:01;;;;;;;12.03;10.90;;;;;;;9.23;81.91;97116.59;5073472;28;20416;-64
2020/12/18 04:05:27;;;;;;;11.90;10.27;;;;;;;9.21;81.85;97113.38;5073336;28;20457;-64
2020/12/18 04:07:52;;;;;;;11.70;10.60;;;;;;;9.20;81.78;97104.69;5072802;28;20189;-62
2020/12/18 04:10:17;;;;;;;12.23;11.23;;;;;;;9.26;81.96;97098.66;5082975;28;20235;-62
2020/12/18 04:12:43;;;;;;;10.80;9.80;;;;;;;9.21;81.63;97098.47;5093219;28;20196;-64
2020/12/18 04:15:08;;;;;;;11.47;10.37;;;;;;;9.25;81.84;97101.50;5093625;28;20165;-62
2020/12/18 04:17:33;;;;;;;12.07;10.77;;;;;;;9.27;81.80;97104.72;5093153;28;20177;-62
2020/12/18 04:19:59;;;;;;;13.70;10.33;;;;;;;9.32;81.31;97100.50;5074952;28;20623;-62
2020/12/18 04:22:24;;;;;;;14.57;10.90;;;;;;;9.35;81.00;97094.03;5074144;28;20663;-63
2020/12/18 04:24:49;;;;;;;12.47;11.27;;;;;;;9.29;80.71;97094.84;5093357;28;20213;-61
2020/12/18 04:27:15;;;;;;;12.33;10.60;;;;;;;9.28;81.28;97090.59;5082691;28;20188;-64
2020/12/18 04:29:40;;;;;;;11.57;10.57;;;;;;;9.32;81.50;97086.56;5073180;28;20682;-65
2020/12/18 04:32:06;;;;;;;12.00;10.43;;;;;;;9.31;81.37;97091.00;5073184;28;20188;-61
2020/12/18 04:34:31;;;;;;;13.20;11.83;;;;;;;9.31;80.75;97096.25;5073070;28;20173;-61
2020/12/18 04:36:56;;;;;;;12.10;10.90;;;;;;;9.24;81.03;97086.75;5072243;28;20170;-64
2020/12/18 04:39:22;;;;;;;13.73;11.00;;;;;;;9.18;81.42;97085.75;5072846;28;20195;-62
2020/12/18 04:41:47;;;;;;;11.90;10.70;;;;;;;9.18;81.24;97096.25;5073396;28;20178;-65
2020/12/18 04:44:13;;;;;;;11.47;9.97;;;;;;;9.11;81.27;97092.78;5072821;28;20200;-65
2020/12/18 04:46:42;;;;;;;11.90;10.70;;;;;;;9.04;81.95;97091.94;5072775;28;20204;-65
2020/12/18 04:49:09;;;;;;;12.97;11.23;;;;;;;8.98;82.82;97089.31;5072754;28;20437;-62
2020/12/18 04:51:41;;;;;;;11.93;10.83;;;;;;;9.00;83.15;97089.94;5072846;28;20425;-65
2020/12/18 04:54:09;;;;;;;12.40;11.20;;;;;;;9.11;82.59;97084.91;5072963;28;20800;-64
2020/12/18 04:56:37;;;;;;;10.93;10.03;;;;;;;9.18;82.38;97090.19;5072568;28;20405;-65
2020/12/18 04:59:04;;;;;;;12.13;10.93;;;;;;;9.21;82.15;97090.59;5072704;28;20436;-65
2020/12/18 05:01:29;;;;;;;10.80;9.90;;;;;;;9.18;82.51;97088.38;5072793;28;20414;-62
2020/12/18 05:03:56;;;;;;;12.93;11.10;;;;;;;9.14;82.89;97087.16;5072241;28;20820;-64
2020/12/18 05:06:22;;;;;;;11.23;10.13;;;;;;;9.18;83.12;97090.19;5072450;28;20178;-64
2020/12/18 05:08:47;;;;;;;12.10;10.90;;;;;;;9.17;83.32;97091.19;5072304;28;20413;-62
2020/12/18 05:11:24;;;;;;;11.60;10.40;;;;;;;9.27;82.66;97083.75;5072326;28;20517;-65
2020/12/18 05:13:52;;;;;;;11.17;10.07;;;;;;;9.23;82.59;97085.16;5072920;28;20171;-64
2020/12/18 05:16:19;;;;;;;12.23;10.93;;;;;;;9.26;82.80;97092.59;5072374;28;20431;-64
2020/12/18 05:18:45;;;;;;;11.83;10.63;;;;;;;9.30;82.59;97078.09;5072204;28;20429;-62
2020/12/18 05:21:10;;;;;;;11.17;10.17;;;;;;;9.33;82.70;97075.88;5072732;28;20409;-62
2020/12/18 05:23:38;;;;;;;13.50;10.77;;;;;;;9.37;82.84;97083.38;5072567;28;20626;-64
2020/12/18 05:26:05;;;;;;;11.27;10.27;;;;;;;9.29;82.93;97076.50;5076350;28;20181;-62
2020/12/18 05:28:37;;;;;;;12.70;11.50;;;;;;;9.27;83.78;97070.63;5075577;28;20801;-64
2020/12/18 05:31:02;;;;;;;13.63;11.40;;;;;;;9.29;83.62;97060.75;5075876;28;20445;-64
2020/12/18 05:33:28;;;;;;;12.60;11.40;;;;;;;9.33;82.67;97070.63;5075889;28;20485;-62
2020/12/18 05:35:56;;;;;;;12.33;11.13;;;;;;;8.96;84.49;97084.28;5075574;28;20175;-62
2020/12/18 05:38:22;;;;;;;12.40;11.20;;;;;;;8.61;85.40;97100.25;5075797;28;20170;-61
2020/12/18 05:40:48;;;;;;;11.80;10.70;;;;;;;8.61;86.22;97095.84;5103669;22;20498;-64
2020/12/18 05:43:14;;;;;;;12.23;11.00;;;;;;;8.47;87.64;97098.59;5055729;28;20556;-64
2020/12/18 05:45:40;;;;;;;15.03;11.43;;;;;;;8.19;89.50;97103.81;5055682;28;20541;-64
2020/12/18 05:48:06;;;;;;;12.43;11.20;;;;;;;8.22;88.43;97101.63;5054877;28;20515;-60
2020/12/18 05:50:34;;;;;;;12.77;11.43;;;;;;;8.30;88.48;97108.56;5055636;28;20305;-64
2020/12/18 05:53:02;;;;;;;14.53;10.83;;;;;;;8.48;87.75;97106.25;5055229;28;20433;-61
2020/12/18 05:55:35;;;;;;;12.40;11.10;;;;;;;8.56;87.50;97093.00;5055792;28;20894;-62
2020/12/18 05:58:00;;;;;;;11.90;10.33;;;;;;;8.63;87.90;97099.06;5054548;28;20438;-62
2020/12/18 06:00:26;;;;;;;10.40;9.37;;;;;;;8.72;87.29;97100.53;5055104;28;20543;-64
2020/12/18 06:03:00;;;;;;;12.40;11.10;;;;;;;8.83;86.60;97104.38;5039551;28;20191;-64
2020/12/18 06:05:26;;;;;;;12.57;9.80;;;;;;;8.92;85.72;97090.09;5042932;28;20221;-64
2020/12/18 06:07:53;;;;;;;10.80;9.70;;;;;;;8.92;85.37;97095.34;5055080;28;20463;-64
2020/12/18 06:10:23;;;;;;;11.60;10.10;;;;;;;8.97;84.91;97090.31;5055220;28;20467;-64
2020/12/18 06:12:50;;;;;;;10.20;9.20;;;;;;;8.94;84.31;97091.53;5055502;28;20481;-62
2020/12/18 06:15:18;;;;;;;12.07;9.93;;;;;;;9.03;84.16;97098.22;5055046;28;20510;-61
2020/12/18 06:17:46;;;;;;;12.43;10.43;;;;;;;9.02;83.64;97104.44;5054905;28;20972;-64
2020/12/18 06:20:15;;;;;;;10.30;9.30;;;;;;;8.96;83.93;97101.81;5054837;28;20439;-64
2020/12/18 06:22:55;;;;;;;11.97;10.77;;;;;;;9.01;84.07;97096.78;5055343;28;20423;-62
2020/12/18 06:25:21;;;;;;;10.73;9.73;;;;;;;9.03;84.29;97098.22;5055482;28;20513;-62
2020/12/18 06:27:54;;;;;;;12.07;9.87;;;;;;;9.05;84.20;97106.69;5054747;28;20520;-65
2020/12/18 06:30:19;;;;;;;11.27;10.07;;;;;;;9.12;83.81;97101.44;5054475;28;20201;-64
2020/12/18 06:32:45;;;;;;;10.37;9.17;;;;;;;9.15;83.70;97096.63;5054966;28;20431;-64
2020/12/18 06:35:33;;;;;;;12.30;10.40;;;;;;;9.13;83.45;97103.09;5054858;28;20229;-64
2020/12/18 06:38:18;;;;;;;11.43;10.27;;;;;;;9.21;82.77;97103.69;5054802;28;20175;-62
2020/12/18 06:40:45;;;;;;;10.97;9.80;;;;;;;9.19;82.69;97104.91;5040427;28;20472;-62
2020/12/18 06:43:11;;;;;;;11.90;10.17;;;;;;;9.21;82.38;97110.75;5044609;28;20422;-60
2020/12/18 06:45:37;;;;;;;12.13;10.87;;;;;;;9.16;82.17;97102.69;5034901;28;20463;-63
2020/12/18 06:48:25;;;;;;;12.80;10.57;;;;;;;9.12;82.55;97114.56;5051263;28;20172;-64
2020/12/18 06:50:50;;;;;;;11.67;10.57;;;;;;;9.16;82.33;97110.53;5054345;28;20946;-63
2020/12/18 06:53:16;;;;;;;11.00;9.90;;;;;;;9.18;82.51;97111.97;5054499;28;20456;-62
2020/12/18 06:55:42;;;;;;;12.43;10.40;;;;;;;9.18;82.95;97111.16;5054723;28;20160;-64
2020/12/18 06:58:10;;;;;;;10.97;9.53;;;;;;;9.22;83.03;97110.53;5054047;28;20217;-62
2020/12/18 07:00:36;;;;;;;10.30;9.33;;;;;;;9.19;82.88;97099.66;5035335;28;20202;-62
2020/12/18 07:03:02;;;;;;;11.77;10.57;;;;;;;9.22;83.35;97094.81;5040368;28;20414;-64
2020/12/18 07:05:42;;;;;;;12.13;9.80;;;;;;;9.26;83.39;97097.84;5054257;28;20457;-65
2020/12/18 07:08:12;;;;;;;11.90;10.70;;;;;;;9.26;83.57;97100.47;5054167;28;20831;-61
2020/12/18 07:10:45;;;;;;;13.07;11.67;;;;;;;8.95;85.32;97101.00;5054652;28;20494;-64
2020/12/18 07:13:14;;;;;;;12.50;11.30;;;;;;;9.08;85.18;97093.19;5051840;28;20436;-64
2020/12/18 07:15:45;;;;;;;13.20;11.90;;;;;;;9.23;84.72;97093.00;5034372;28;20410;-64
2020/12/18 07:18:26;;;;;;;12.90;11.60;;;;;;;9.28;84.27;97094.03;5034096;28;20431;-61
2020/12/18 07:20:59;;;;;;;13.33;11.93;;;;;;;9.28;83.98;97094.03;5034288;28;20426;-62
2020/12/18 07:23:26;;;;;;;13.23;11.33;;;;;;;9.18;84.86;97098.88;5053975;28;20425;-62
2020/12/18 07:25:53;;;;;;;14.83;13.20;;;;;;;9.25;84.56;97104.13;5053594;28;20466;-61
2020/12/18 07:28:19;;;;;;;12.70;11.40;;;;;;;9.26;84.52;97105.72;5053603;28;20509;-64
2020/12/18 07:30:46;;;;;;;14.60;12.57;;;;;;;9.25;84.46;97104.13;5053918;28;20963;-64
2020/12/18 07:33:15;;;;;;;15.73;12.47;;;;;;;9.13;84.89;97109.13;5054056;28;20408;-64
2020/12/18 07:35:43;;;;;;;14.60;12.67;;;;;;;9.23;84.87;97096.44;5053963;28;20408;-62
2020/12/18 07:38:32;;;;;;;14.90;13.37;;;;;;;9.33;84.62;97098.66;5053293;28;20424;-64
2020/12/18 07:41:03;;;;;;;13.47;11.60;;;;;;;9.45;84.32;97098.91;5053456;28;20501;-62
2020/12/18 07:43:31;;;;;;;17.77;14.13;;;;;;;9.47;84.02;97102.94;5053903;28;20438;-65
2020/12/18 07:45:58;;;;;;;15.33;13.10;;;;;;;9.55;84.19;97104.56;5053861;28;20456;-64
2020/12/18 07:48:29;;;;;;;14.40;11.90;;;;;;;9.58;83.91;97110.22;5052324;28;20420;-61
2020/12/18 07:51:19;;;;;;;13.50;12.20;;;;;;;9.62;83.63;97098.28;5053207;28;20452;-64
2020/12/18 07:53:46;;;;;;;14.20;12.70;;;;;;;9.53;84.03;97104.75;5039801;28;20500;-62
2020/12/18 07:56:19;;;;;;;12.93;11.37;;;;;;;9.64;84.38;97103.38;5042154;28;20422;-69
2020/12/18 07:58:57;;;;;;;13.80;12.30;;;;;;;9.67;84.44;97095.09;5053349;28;20413;-67
2020/12/18 08:01:29;;;;;;;13.17;11.77;;;;;;;9.72;84.23;97103.97;5052858;28;20437;-63
2020/12/18 08:03:57;;;;;;;12.37;11.07;;;;;;;9.81;84.32;97089.63;5053132;28;20552;-67
2020/12/18 08:06:28;;;;;;;13.10;11.77;;;;;;;9.90;83.88;97084.97;5053015;28;20937;-64
2020/12/18 08:09:05;;;;;;;12.90;11.60;;;;;;;9.89;83.82;97086.78;5044468;28;20423;-63
2020/12/18 08:11:37;;;;;;;12.57;11.40;;;;;;;9.98;83.98;97084.78;5045720;28;20433;-68
2020/12/18 08:14:05;;;;;;;12.40;10.50;;;;;;;10.06;83.71;97082.75;5053546;28;20409;-64
2020/12/18 08:16:32;;;;;;;13.30;11.90;;;;;;;10.11;83.70;97088.22;5051673;28;20452;-63
2020/12/18 08:18:59;;;;;;;18.83;13.07;;;;;;;10.20;83.72;97092.25;5053319;28;20426;-68
2020/12/18 08:21:27;;;;;;;16.67;13.53;;;;;;;10.25;83.43;97097.69;5053025;28;20979;-63
2020/12/18 08:24:09;;;;;;;15.60;14.00;;;;;;;10.37;82.78;97103.13;5053089;28;20470;-67
2020/12/18 08:26:41;;;;;;;18.40;15.13;;;;;;;10.43;82.37;97096.22;5053261;28;20407;-64
2020/12/18 08:29:08;;;;;;;17.90;16.00;;;;;;;10.45;82.64;97100.28;5052275;28;20472;-65
2020/12/18 08:31:42;;;;;;;19.27;17.20;;;;;;;10.49;82.59;97098.06;5052981;28;20513;-59
2020/12/18 08:34:11;;;;;;;16.97;14.00;;;;;;;10.51;82.31;97101.28;5053020;28;20407;-59
2020/12/18 08:36:45;;;;;;;16.97;14.77;;;;;;;10.56;82.57;97090.94;5052470;28;20465;-59
2020/12/18 08:39:12;;;;;;;16.23;14.47;;;;;;;10.60;82.32;97098.19;5052818;28;20451;-65
2020/12/18 08:41:42;;;;;;;16.00;14.30;;;;;;;10.66;82.24;97104.44;5053153;28;20442;-64
2020/12/18 08:44:09;;;;;;;13.10;11.90;;;;;;;10.75;81.84;97098.75;5052877;28;20498;-65
2020/12/18 08:46:36;;;;;;;14.47;13.07;;;;;;;10.81;82.10;97105.81;5052621;28;20552;-64
2020/12/18 08:49:12;;;;;;;14.57;13.10;;;;;;;10.87;81.51;97104.97;5056229;28;20418;-66
2020/12/18 08:51:37;;;;;;;14.10;12.67;;;;;;;10.90;81.70;97107.19;5071749;28;20418;-58
2020/12/18 08:54:18;;;;;;;14.00;12.70;;;;;;;10.94;81.41;97097.84;5073084;28;20395;-59
2020/12/18 08:56:44;;;;;;;15.03;11.47;;;;;;;10.97;81.01;97104.53;5072673;28;20258;-66
2020/12/18 08:59:09;;;;;;;13.07;11.10;;;;;;;10.69;80.63;97098.78;5056469;28;20527;-65
2020/12/18 09:01:34;;;;;;;11.37;10.27;;;;;;;10.54;80.88;97100.84;5056803;28;20174;-65
2020/12/18 09:04:00;;;;;;;11.93;10.77;;;;;;;10.49;81.28;97109.34;5056743;28;20565;-59
2020/12/18 09:06:27;;;;;;;11.83;10.73;;;;;;;10.48;81.40;97106.94;5052563;28;20185;-61
2020/12/18 09:09:04;;;;;;;12.23;10.30;;;;;;;10.53;80.70;97112.38;5053246;28;20261;-64
2020/12/18 09:11:29;;;;;;;13.40;10.60;;;;;;;10.57;80.48;97108.31;5052918;28;20456;-59
2020/12/18 09:13:55;;;;;;;11.90;10.23;;;;;;;10.45;82.04;97113.41;5052536;28;20535;-62
2020/12/18 09:16:23;;;;;;;12.20;10.80;;;;;;;10.70;81.01;97103.03;5052815;28;20183;-62
2020/12/18 09:18:51;;;;;;;11.93;10.63;;;;;;;10.98;80.73;97104.31;5054945;28;20181;-59
2020/12/18 09:21:18;;;;;;;12.50;11.40;;;;;;;11.29;79.66;97099.09;5056748;28;20412;-59
2020/12/18 09:23:46;;;;;;;11.87;10.77;;;;;;;11.63;78.47;97097.84;5056457;28;20419;-64
2020/12/18 09:26:21;;;;;;;10.43;9.43;;;;;;;11.87;77.99;97093.66;5055867;28;20425;-59
2020/12/18 09:28:47;;;;;;;11.00;9.90;;;;;;;11.87;77.10;97105.00;5056217;28;20497;-65
2020/12/18 09:31:12;;;;;;;11.00;9.90;;;;;;;11.97;76.71;97091.34;5056644;28;20453;-59
2020/12/18 09:33:38;;;;;;;11.73;10.53;;;;;;;11.82;76.64;97099.56;5056309;28;20171;-65
2020/12/18 09:36:08;;;;;;;11.07;10.00;;;;;;;11.36;77.98;97105.13;5056195;28;20203;-65
2020/12/18 09:38:38;;;;;;;10.40;9.37;;;;;;;11.38;78.01;97099.66;5054515;28;20796;-65
2020/12/18 09:41:06;;;;;;;11.47;10.37;;;;;;;11.66;77.09;97096.66;5055604;28;20828;-58
2020/12/18 09:43:32;;;;;;;11.43;10.30;;;;;;;11.65;76.95;97102.97;5056049;28;20417;-59
2020/12/18 09:45:58;;;;;;;10.47;9.53;;;;;;;11.48;77.18;97100.00;5055554;28;20560;-65
2020/12/18 09:48:23;;;;;;;11.50;10.40;;;;;;;11.56;77.99;97099.72;5055679;28;20647;-65
2020/12/18 09:50:58;;;;;;;11.27;10.17;;;;;;;11.84;76.67;97100.16;5055744;28;20622;-59
2020/12/18 09:53:24;;;;;;;13.17;9.87;;;;;;;11.56;77.62;97089.19;5055611;28;20659;-61
2020/12/18 09:55:51;;;;;;;10.63;9.53;;;;;;;11.46;79.12;97102.03;5055808;28;20812;-61
2020/12/18 09:58:16;;;;;;;8.67;7.90;;;;;;;11.57;78.32;97087.38;5055528;28;20406;-57
2020/12/18 10:00:42;;;;;;;8.47;7.70;;;;;;;11.35;78.92;97089.56;5055745;28;20516;-58
2020/12/18 10:03:07;;;;;;;8.93;7.27;;;;;;;11.18;79.60;97083.97;5055790;28;20206;-57
2020/12/18 10:05:33;;;;;;;8.07;7.17;;;;;;;11.26;79.50;97085.56;5055584;28;20290;-58
2020/12/18 10:07:58;;;;;;;8.83;7.93;;;;;;;11.34;79.37;97083.47;5054956;28;20190;-63
2020/12/18 10:10:26;;;;;;;9.53;8.00;;;;;;;11.55;79.45;97090.22;5054726;28;20187;-62
2020/12/18 10:12:55;;;;;;;8.80;7.90;;;;;;;11.66;78.87;97084.31;5055343;28;20634;-63
2020/12/18 10:15:21;;;;;;;8.37;7.60;;;;;;;11.84;78.64;97086.19;5055113;28;20426;-62
2020/12/18 10:17:47;;;;;;;7.37;6.73;;;;;;;12.00;77.64;97075.09;5055079;28;20410;-62
2020/12/18 10:20:12;;;;;;;7.57;6.87;;;;;;;12.07;77.69;97076.66;5055297;28;20441;-63
2020/12/18 10:22:38;;;;;;;6.77;6.17;;;;;;;12.01;77.89;97077.50;5054955;28;20241;-63
2020/12/18 10:25:03;;;;;;;8.23;7.43;;;;;;;12.07;76.77;97075.84;5055529;28;20199;-65
2020/12/18 10:27:29;;;;;;;7.37;6.67;;;;;;;12.20;77.46;97078.34;5054935;28;20167;-63
2020/12/18 10:29:57;;;;;;;6.50;5.90;;;;;;;12.30;76.92;97082.09;5054729;28;20210;-63
2020/12/18 10:32:26;;;;;;;6.90;6.20;;;;;;;12.37;77.09;97071.50;5055389;28;20259;-65
2020/12/18 10:34:51;;;;;;;6.03;5.53;;;;;;;12.38;76.89;97058.09;5053835;28;20414;-68
2020/12/18 10:37:17;;;;;;;8.23;6.10;;;;;;;12.43;76.57;97068.78;5054518;28;20513;-70
2020/12/18 10:39:42;;;;;;;6.77;6.17;;;;;;;12.47;76.21;97068.34;5053667;28;20218;-65
2020/12/18 10:42:08;;;;;;;7.73;6.47;;;;;;;12.59;76.29;97066.59;5055183;28;20242;-64
2020/12/18 10:44:35;;;;;;;8.77;6.10;;;;;;;12.63;75.89;97059.88;5054967;28;20199;-64
2020/12/18 10:47:01;;;;;;;7.53;5.33;;;;;;;12.68;75.72;97060.78;5053736;28;20433;-66
2020/12/18 10:49:26;;;;;;;6.20;5.70;;;;;;;12.80;75.40;97056.41;5054088;28;20540;-64
2020/12/18 10:51:52;;;;;;;5.97;5.47;;;;;;;12.81;74.68;97057.22;5054342;28;20187;-65
2020/12/18 10:54:17;;;;;;;6.43;5.83;;;;;;;12.96;74.20;97054.97;5054194;28;20171;-64
2020/12/18 10:56:45;;;;;;;6.53;5.90;;;;;;;13.00;73.72;97042.94;5053732;28;20186;-66
2020/12/18 10:59:11;;;;;;;9.27;6.80;;;;;;;13.06;74.28;97045.50;5054067;28;20536;-64
2020/12/18 11:01:37;;;;;;;7.50;6.80;;;;;;;13.23;73.26;97043.88;5054365;28;20520;-64
2020/12/18 11:04:03;;;;;;;6.20;5.70;;;;;;;13.25;73.25;97041.00;5054358;28;20461;-64
2020/12/18 11:06:29;;;;;;;6.90;6.30;;;;;;;13.33;73.58;97032.78;5054124;28;20913;-64
2020/12/18 11:08:55;;;;;;;6.27;5.77;;;;;;;13.23;73.82;97029.84;5054425;28;20175;-64
2020/12/18 11:11:21;;;;;;;5.93;5.50;;;;;;;13.24;72.20;97029.63;5054470;28;20410;-64
2020/12/18 11:13:46;;;;;;;8.37;5.97;;;;;;;13.35;72.36;97031.50;5054544;28;20168;-64
2020/12/18 11:16:12;;;;;;;7.80;6.30;;;;;;;13.43;71.63;97028.53;5054313;28;20581;-63
2020/12/18 11:18:37;;;;;;;6.20;5.60;;;;;;;13.42;71.43;97034.06;5053606;28;20214;-64
2020/12/18 11:21:05;;;;;;;6.13;5.63;;;;;;;13.56;71.15;97024.88;5054005;28;20302;-64
2020/12/18 11:23:32;;;;;;;5.23;4.80;;;;;;;13.59;71.38;97021.00;5054165;28;20171;-64
2020/12/18 11:25:57;;;;;;;5.97;5.43;;;;;;;13.78;71.15;97020.66;5054098;28;20823;-64
2020/12/18 11:28:23;;;;;;;6.73;5.50;;;;;;;13.95;70.50;97015.50;5053897;28;20410;-64